createdAt,value
2018-12-01T00:00:03.997Z,5.40
2018-12-01T00:03:15.144Z,6.30
2018-12-01T00:06:27.022Z,8.65
2018-12-01T00:09:38.271Z,6.47
2018-12-01T00:12:51.283Z,7.60
2018-12-01T00:16:02.599Z,7.67
2018-12-01T00:19:13.587Z,8.20
2018-12-01T00:22:25.332Z,6.92
2018-12-01T00:25:36.638Z,7.60
2018-12-01T00:28:48.703Z,8.47
2018-12-01T00:31:59.837Z,7.97
2018-12-01T00:35:12.788Z,7.90
2018-12-01T00:38:24.596Z,7.65
2018-12-01T00:41:36.018Z,7.97
2018-12-01T00:44:48.226Z,9.53
2018-12-01T00:48:00.182Z,8.48
2018-12-01T00:51:11.535Z,9.13
2018-12-01T00:54:23.008Z,8.43
2018-12-01T00:57:34.287Z,8.17
2018-12-01T01:00:46.215Z,8.80
2018-12-01T01:03:57.042Z,7.97
2018-12-01T01:07:08.951Z,8.35
2018-12-01T01:10:21.205Z,8.60
2018-12-01T01:13:32.896Z,7.70
2018-12-01T01:16:44.158Z,9.50
2018-12-01T01:19:55.412Z,9.47
2018-12-01T01:23:07.659Z,7.53
2018-12-01T01:26:19.103Z,8.50
2018-12-01T01:29:30.336Z,8.07
2018-12-01T01:32:41.853Z,8.13
2018-12-01T01:35:53.036Z,9.47
2018-12-01T01:39:06.639Z,8.50
2018-12-01T01:42:18.164Z,9.20
2018-12-01T01:45:29.855Z,8.75
2018-12-01T01:48:40.924Z,8.23
2018-12-01T01:51:52.622Z,7.62
2018-12-01T01:55:04.168Z,8.33
2018-12-01T01:58:15.879Z,8.73
2018-12-01T02:01:27.434Z,8.85
2018-12-01T02:04:38.748Z,9.00
2018-12-01T02:07:50.096Z,8.37
2018-12-01T02:11:01.710Z,9.80
2018-12-01T02:14:14.330Z,9.88
2018-12-01T02:17:25.680Z,8.80
2018-12-01T02:20:37.847Z,10.23
2018-12-01T02:23:49.641Z,9.55
2018-12-01T02:27:01.559Z,8.90
2018-12-01T02:30:21.974Z,10.47
2018-12-01T02:33:33.375Z,9.30
2018-12-01T02:36:44.979Z,11.00
2018-12-01T02:39:57.318Z,10.90
2018-12-01T02:43:08.895Z,9.90
2018-12-01T02:47:35.561Z,8.60
2018-12-01T02:50:47.677Z,9.83
2018-12-01T02:53:58.567Z,11.20
2018-12-01T02:57:09.955Z,8.30
2018-12-01T03:00:21.164Z,9.53
2018-12-01T03:03:32.692Z,11.20
2018-12-01T03:06:43.898Z,9.93
2018-12-01T03:09:55.188Z,10.97
2018-12-01T03:13:06.899Z,10.67
2018-12-01T03:16:18.219Z,8.80
2018-12-01T03:19:29.302Z,9.60
2018-12-01T03:22:40.993Z,9.85
2018-12-01T03:25:55.505Z,9.00
2018-12-01T03:29:06.659Z,10.80
2018-12-01T03:32:18.455Z,10.20
2018-12-01T03:35:29.491Z,10.70
2018-12-01T03:38:41.108Z,9.80
2018-12-01T03:41:52.732Z,9.78
2018-12-01T03:45:04.071Z,9.40
2018-12-01T03:48:15.339Z,11.18
2018-12-01T03:51:26.249Z,8.50
2018-12-01T03:54:37.713Z,9.17
2018-12-01T03:57:51.202Z,7.42
2018-12-01T04:01:02.754Z,9.20
2018-12-01T04:04:14.078Z,9.50
2018-12-01T04:07:25.499Z,8.65
2018-12-01T04:10:36.530Z,10.43
2018-12-01T04:13:48.898Z,9.40
2018-12-01T04:17:00.328Z,9.73
2018-12-01T04:20:12.354Z,11.57
2018-12-01T04:23:23.203Z,10.33
2018-12-01T04:26:34.602Z,9.87
2018-12-01T04:29:46.730Z,9.63
2018-12-01T04:32:58.013Z,10.72
2018-12-01T04:36:09.361Z,10.53
2018-12-01T04:39:20.884Z,9.87
2018-12-01T04:42:32.036Z,9.18
2018-12-01T04:45:43.360Z,8.90
2018-12-01T04:48:54.658Z,10.23
2018-12-01T04:52:07.108Z,9.53
2018-12-01T04:57:15.789Z,9.20
2018-12-01T05:00:26.575Z,11.43
2018-12-01T05:03:37.830Z,10.10
2018-12-01T05:06:49.282Z,9.45
2018-12-01T05:10:00.667Z,9.50
2018-12-01T05:13:11.818Z,8.50
2018-12-01T05:16:22.819Z,9.60
2018-12-01T05:19:34.360Z,9.37
2018-12-01T05:22:47.039Z,9.97
2018-12-01T05:25:58.404Z,9.15
2018-12-01T05:29:10.062Z,7.30
2018-12-01T05:32:21.214Z,10.67
2018-12-01T05:35:32.347Z,8.83
2018-12-01T05:38:43.915Z,9.23
2018-12-01T05:41:54.908Z,10.07
2018-12-01T05:45:09.415Z,9.13
2018-12-01T05:48:21.184Z,9.27
2018-12-01T05:51:32.364Z,8.50
2018-12-01T05:54:43.745Z,10.90
2018-12-01T05:57:54.736Z,9.17
2018-12-01T06:01:06.817Z,8.37
2018-12-01T06:04:18.036Z,9.48
2018-12-01T06:07:29.118Z,8.50
2018-12-01T06:10:40.650Z,7.35
2018-12-01T06:13:51.844Z,7.30
2018-12-01T06:17:03.758Z,7.62
2018-12-01T06:20:17.524Z,7.67
2018-12-01T06:23:29.214Z,8.30
2018-12-01T06:26:40.494Z,7.63
2018-12-01T06:29:51.866Z,9.13
2018-12-01T06:33:03.000Z,7.70
2018-12-01T06:36:14.305Z,8.70
2018-12-01T06:39:25.503Z,10.67
2018-12-01T06:42:36.958Z,13.90
2018-12-01T06:45:48.467Z,9.30
2018-12-01T06:48:59.343Z,8.50
2018-12-01T06:52:10.279Z,9.47
2018-12-01T06:55:22.285Z,10.20
2018-12-01T06:58:34.012Z,9.05
2018-12-01T07:01:47.511Z,9.23
2018-12-01T07:04:59.043Z,8.63
2018-12-01T07:08:10.853Z,9.80
2018-12-01T07:11:23.069Z,8.33
2018-12-01T07:14:34.909Z,7.80
2018-12-01T07:17:49.167Z,7.93
2018-12-01T07:21:00.661Z,9.00
2018-12-01T07:24:12.614Z,7.55
2018-12-01T07:27:24.331Z,8.70
2018-12-01T07:30:35.698Z,9.00
2018-12-01T07:33:46.990Z,7.17
2018-12-01T07:36:58.103Z,7.60
2018-12-01T07:40:17.450Z,9.55
2018-12-01T07:43:29.288Z,7.60
2018-12-01T07:46:40.446Z,8.43
2018-12-01T07:49:51.780Z,7.40
2018-12-01T07:53:02.691Z,7.73
2018-12-01T07:56:14.572Z,7.83
2018-12-01T07:59:25.817Z,8.27
2018-12-01T08:02:37.064Z,7.63
2018-12-01T08:05:49.675Z,7.07
2018-12-01T08:09:00.939Z,7.00
2018-12-01T08:14:40.644Z,7.50
2018-12-01T08:17:51.578Z,7.40
2018-12-01T08:21:03.277Z,8.00
2018-12-01T08:24:15.035Z,7.83
2018-12-01T08:27:26.019Z,7.23
2018-12-01T08:30:37.489Z,11.10
2018-12-01T08:33:48.992Z,10.00
2018-12-01T08:37:01.867Z,10.68
2018-12-01T08:40:16.306Z,8.05
2018-12-01T08:43:28.218Z,7.83
2018-12-01T08:46:45.497Z,8.13
2018-12-01T08:49:57.025Z,6.45
2018-12-01T08:53:08.430Z,7.97
2018-12-01T08:56:20.520Z,9.18
2018-12-01T08:59:31.629Z,8.48
2018-12-01T09:02:42.563Z,6.83
2018-12-01T09:05:54.521Z,7.20
2018-12-01T09:09:08.121Z,9.55
2018-12-01T09:12:19.950Z,6.70
2018-12-01T09:15:31.071Z,8.40
2018-12-01T09:18:42.793Z,6.87
2018-12-01T09:21:55.144Z,8.68
2018-12-01T09:25:09.283Z,7.62
2018-12-01T09:28:20.297Z,8.23
2018-12-01T09:31:31.867Z,6.70
2018-12-01T09:34:43.767Z,8.40
2018-12-01T09:37:54.669Z,6.73
2018-12-01T09:41:06.483Z,8.47
2018-12-01T09:44:18.525Z,8.43
2018-12-01T09:47:29.844Z,8.67
2018-12-01T09:50:41.126Z,7.53
2018-12-01T09:53:52.804Z,6.30
2018-12-01T09:57:04.286Z,8.80
2018-12-01T10:00:20.460Z,7.70
2018-12-01T10:03:31.669Z,8.00
2018-12-01T10:06:43.240Z,9.30
2018-12-01T10:09:54.502Z,6.50
2018-12-01T10:13:06.783Z,8.23
2018-12-01T10:16:18.454Z,6.90
2018-12-01T10:19:30.372Z,8.28
2018-12-01T10:22:42.011Z,6.10
2018-12-01T10:25:53.229Z,6.57
2018-12-01T10:29:05.115Z,6.40
2018-12-01T10:32:16.853Z,9.15
2018-12-01T10:35:28.773Z,8.30
2018-12-01T10:38:39.998Z,7.50
2018-12-01T10:41:51.147Z,7.77
2018-12-01T10:45:02.267Z,8.53
2018-12-01T10:48:15.739Z,7.50
2018-12-01T10:51:26.985Z,7.97
2018-12-01T10:54:38.467Z,8.13
2018-12-01T10:57:50.454Z,7.30
2018-12-01T11:01:07.537Z,6.83
2018-12-01T11:04:23.690Z,6.00
2018-12-01T11:07:34.477Z,7.80
2018-12-01T11:10:48.231Z,7.87
2018-12-01T11:13:59.417Z,6.67
2018-12-01T11:17:11.152Z,7.15
2018-12-01T11:20:22.874Z,7.92
2018-12-01T11:23:36.331Z,7.20
2018-12-01T11:26:52.288Z,6.80
2018-12-01T11:30:23.772Z,6.30
2018-12-01T11:33:37.246Z,8.20
2018-12-01T11:36:50.584Z,6.47
2018-12-01T11:40:02.925Z,5.70
2018-12-01T11:43:15.915Z,6.22
2018-12-01T11:46:28.535Z,6.30
2018-12-01T11:49:42.116Z,8.53
2018-12-01T11:52:53.866Z,8.25
2018-12-01T11:56:06.605Z,8.73
2018-12-01T11:59:18.985Z,9.03
2018-12-01T12:02:30.768Z,8.40
2018-12-01T12:05:42.593Z,6.73
2018-12-01T12:08:53.437Z,8.10
2018-12-01T12:12:04.796Z,6.60
2018-12-01T12:15:17.568Z,16.17
2018-12-01T12:18:29.635Z,8.98
2018-12-01T12:21:41.813Z,8.03
2018-12-01T12:24:54.032Z,9.68
2018-12-01T12:28:07.220Z,8.03
2018-12-01T12:31:18.628Z,7.17
2018-12-01T12:34:35.352Z,6.73
2018-12-01T12:37:54.191Z,7.95
2018-12-01T12:41:15.294Z,7.60
2018-12-01T12:44:27.300Z,6.80
2018-12-01T12:47:47.377Z,5.80
2018-12-01T12:50:58.332Z,8.63
2018-12-01T12:54:09.810Z,6.97
2018-12-01T12:57:21.655Z,7.22
2018-12-01T13:00:32.776Z,7.27
2018-12-01T13:03:43.811Z,7.70
2018-12-01T13:06:55.285Z,7.87
2018-12-01T13:10:12.150Z,5.62
2018-12-01T13:13:23.640Z,8.05
2018-12-01T13:17:51.047Z,8.18
2018-12-01T13:21:02.315Z,6.23
2018-12-01T13:24:14.422Z,8.60
2018-12-01T13:27:27.027Z,8.20
2018-12-01T13:31:00.335Z,8.90
2018-12-01T13:34:11.951Z,8.88
2018-12-01T13:37:23.619Z,9.18
2018-12-01T13:40:35.622Z,9.53
2018-12-01T13:43:47.265Z,7.37
2018-12-01T13:46:59.689Z,9.25
2018-12-01T13:50:17.092Z,9.60
2018-12-01T13:53:28.389Z,6.97
2018-12-01T13:56:39.855Z,8.48
2018-12-01T13:59:50.916Z,8.93
2018-12-01T14:03:02.686Z,9.60
2018-12-01T14:06:14.142Z,9.38
2018-12-01T14:09:25.641Z,8.23
2018-12-01T14:12:36.801Z,8.03
2018-12-01T14:15:48.749Z,7.70
2018-12-01T14:19:01.350Z,8.60
2018-12-01T14:22:13.067Z,9.03
2018-12-01T14:25:24.285Z,8.60
2018-12-01T14:28:35.718Z,9.50
2018-12-01T14:31:48.837Z,8.87
2018-12-01T14:35:00.078Z,8.00
2018-12-01T14:38:17.761Z,11.10
2018-12-01T14:41:29.003Z,9.13
2018-12-01T14:44:40.187Z,10.90
2018-12-01T14:47:51.596Z,9.58
2018-12-01T14:51:03.572Z,8.45
2018-12-01T14:54:15.638Z,8.33
2018-12-01T14:57:27.219Z,9.60
2018-12-01T15:00:38.956Z,10.45
2018-12-01T15:03:50.497Z,10.47
2018-12-01T15:07:02.852Z,8.33
2018-12-01T15:10:18.877Z,10.14
2018-12-01T15:13:31.001Z,9.73
2018-12-01T15:16:42.899Z,8.70
2018-12-01T15:19:54.794Z,8.23
2018-12-01T15:23:08.193Z,9.43
2018-12-01T15:26:19.832Z,9.30
2018-12-01T15:29:32.232Z,8.13
2018-12-01T15:32:50.193Z,8.68
2018-12-01T15:36:02.019Z,8.63
2018-12-01T15:39:13.202Z,9.73
2018-12-01T15:42:24.198Z,13.03
2018-12-01T15:45:35.801Z,15.70
2018-12-01T15:48:47.730Z,11.43
2018-12-01T15:52:00.042Z,8.77
2018-12-01T15:55:12.985Z,10.00
2018-12-01T15:58:24.203Z,8.70
2018-12-01T16:01:35.873Z,9.50
2018-12-01T16:04:48.283Z,8.33
2018-12-01T16:08:00.339Z,8.47
2018-12-01T16:11:11.992Z,8.53
2018-12-01T16:14:24.271Z,10.60
2018-12-01T16:17:35.729Z,10.40
2018-12-01T16:20:47.948Z,9.83
2018-12-01T16:23:59.706Z,9.93
2018-12-01T16:27:12.055Z,10.43
2018-12-01T16:30:30.781Z,10.30
2018-12-01T16:33:41.505Z,9.70
2018-12-01T16:36:53.476Z,9.33
2018-12-01T16:40:08.440Z,7.57
2018-12-01T16:43:20.641Z,7.70
2018-12-01T16:46:32.875Z,8.27
2018-12-01T16:49:45.663Z,8.33
2018-12-01T16:52:57.465Z,9.40
2018-12-01T16:56:09.678Z,8.70
2018-12-01T16:59:21.471Z,9.45
2018-12-01T17:02:32.641Z,8.30
2018-12-01T17:05:50.489Z,7.90
2018-12-01T17:09:01.617Z,7.83
2018-12-01T17:12:16.843Z,7.97
2018-12-01T17:15:29.263Z,8.58
2018-12-01T17:18:41.240Z,7.47
2018-12-01T17:21:52.566Z,6.23
2018-12-01T17:25:07.051Z,6.33
2018-12-01T17:28:21.057Z,6.80
2018-12-01T17:31:34.312Z,5.50
2018-12-01T17:34:48.104Z,6.00
2018-12-01T17:38:04.901Z,6.13
2018-12-01T17:41:21.694Z,7.25
2018-12-01T17:44:33.578Z,6.75
2018-12-01T17:47:45.245Z,7.13
2018-12-01T17:50:57.562Z,15.83
2018-12-01T17:54:17.161Z,11.60
2018-12-01T17:57:29.336Z,16.52
2018-12-01T18:00:42.341Z,11.38
2018-12-01T18:03:53.506Z,6.62
2018-12-01T18:07:04.633Z,6.13
2018-12-01T18:10:16.048Z,5.23
2018-12-01T18:13:27.808Z,7.70
2018-12-01T18:16:38.986Z,6.47
2018-12-01T18:19:50.471Z,6.60
2018-12-01T18:23:03.748Z,6.30
2018-12-01T18:26:15.293Z,7.45
2018-12-01T18:29:26.894Z,6.33
2018-12-01T18:32:39.054Z,6.12
2018-12-01T18:35:50.602Z,6.30
2018-12-01T18:39:02.587Z,6.87
2018-12-01T18:42:13.988Z,6.60
2018-12-01T18:45:25.275Z,7.10
2018-12-01T18:48:36.364Z,5.03
2018-12-01T18:51:49.389Z,5.80
2018-12-01T18:55:00.701Z,6.07
2018-12-01T18:58:12.706Z,5.60
2018-12-01T19:01:23.986Z,6.20
2018-12-01T19:04:35.164Z,6.00
2018-12-01T19:07:46.958Z,5.10
2018-12-01T19:10:59.097Z,6.12
2018-12-01T19:14:11.268Z,5.15
2018-12-01T19:17:23.490Z,5.03
2018-12-01T19:20:34.545Z,4.83
2018-12-01T19:23:46.010Z,4.93
2018-12-01T19:26:58.043Z,7.25
2018-12-01T19:30:12.043Z,5.60
2018-12-01T19:33:25.118Z,5.97
2018-12-01T19:36:36.386Z,6.83
2018-12-01T19:39:48.155Z,8.55
2018-12-01T19:43:02.457Z,7.00
2018-12-01T19:46:13.922Z,5.63
2018-12-01T19:49:25.710Z,6.90
2018-12-01T19:52:36.970Z,4.77
2018-12-01T19:55:51.747Z,6.10
2018-12-01T19:59:03.353Z,5.07
2018-12-01T20:02:14.208Z,4.40
2018-12-01T20:05:25.621Z,6.50
2018-12-01T20:08:37.239Z,4.60
2018-12-01T20:11:49.320Z,5.78
2018-12-01T20:15:00.539Z,4.47
2018-12-01T20:18:23.651Z,6.33
2018-12-01T20:21:35.161Z,4.80
2018-12-01T20:24:48.091Z,4.50
2018-12-01T20:28:00.152Z,5.77
2018-12-01T20:31:11.152Z,6.30
2018-12-01T20:34:22.775Z,5.93
2018-12-01T20:37:34.574Z,6.60
2018-12-01T20:40:45.611Z,6.50
2018-12-01T20:43:56.895Z,4.93
2018-12-01T20:47:08.611Z,5.70
2018-12-01T20:50:20.417Z,6.10
2018-12-01T20:53:31.775Z,6.53
2018-12-01T20:56:42.760Z,7.27
2018-12-01T20:59:53.993Z,6.50
2018-12-01T21:03:05.619Z,6.58
2018-12-01T21:06:18.501Z,7.28
2018-12-01T21:09:29.940Z,6.90
2018-12-01T21:12:41.210Z,7.83
2018-12-01T21:15:52.709Z,7.53
2018-12-01T21:19:03.752Z,6.70
2018-12-01T21:22:15.937Z,7.10
2018-12-01T21:25:28.386Z,8.47
2018-12-01T21:28:40.374Z,8.73
2018-12-01T21:31:52.360Z,8.03
2018-12-01T21:35:04.917Z,7.55
2018-12-01T21:38:20.061Z,7.95
2018-12-01T21:41:32.032Z,7.60
2018-12-01T21:44:44.355Z,7.42
2018-12-01T21:47:56.016Z,9.95
2018-12-01T21:51:07.621Z,7.50
2018-12-01T21:54:19.555Z,9.20
2018-12-01T21:57:30.632Z,8.93
2018-12-01T22:00:45.982Z,7.97
2018-12-01T22:03:57.426Z,8.08
2018-12-01T22:07:08.504Z,8.50
2018-12-01T22:10:19.905Z,9.30
2018-12-01T22:13:41.848Z,10.50
2018-12-01T22:16:54.753Z,9.30
2018-12-01T22:20:15.781Z,8.38
2018-12-01T22:23:27.869Z,8.23
2018-12-01T22:26:39.476Z,9.25
2018-12-01T22:29:50.631Z,8.47
2018-12-01T22:33:02.378Z,8.60
2018-12-01T22:36:14.399Z,7.87
2018-12-01T22:39:26.609Z,8.60
2018-12-01T22:42:38.745Z,7.20
2018-12-01T22:45:50.607Z,7.97
2018-12-01T22:49:01.903Z,8.13
2018-12-01T22:52:12.917Z,9.00
2018-12-01T22:55:27.366Z,7.90
2018-12-01T22:58:38.819Z,9.00
2018-12-01T23:01:50.765Z,7.67
2018-12-01T23:05:02.005Z,7.47
2018-12-01T23:08:15.045Z,6.43
2018-12-01T23:11:26.566Z,8.00
2018-12-01T23:14:38.071Z,7.30
2018-12-01T23:17:49.807Z,8.53
2018-12-01T23:21:01.385Z,7.55
2018-12-01T23:24:12.747Z,7.23
2018-12-01T23:27:23.781Z,7.70
2018-12-01T23:30:35.719Z,7.17
2018-12-01T23:33:48.508Z,7.37
2018-12-01T23:36:59.940Z,6.87
2018-12-01T23:40:13.725Z,7.00
2018-12-01T23:43:25.223Z,7.00
2018-12-01T23:46:36.519Z,7.60
2018-12-01T23:49:47.645Z,6.63
2018-12-01T23:53:01.740Z,7.17
2018-12-01T23:56:13.494Z,6.90
2018-12-01T23:59:25.068Z,6.30
